• Join FlightAware (Why Join?)
  • Login
  • US Flag 
11:57AM EDT


 

Airport Tracker/Info


-or-


 

Live Flight TrackerFlight Track Log ✈ SWA407 ✈ 11-Apr-2013 ✈ KBNA - KTPA

Flight Track Log - Related Links

Times and Time Zones

All times are in EDT time to prevent confusion due to time zone crossing. See the SWA407 flight status page for this flight to view local times or setup timezone preferences in your user account.

Time Position Orientation Groundspeed Altitude Reporting Facility
EDT Latitude Longitude Course Direction KTS MPH feet Rate Location/Type
01:11PM 36.1000 -86.6833 180° South 131 151 1,300  Level Nashville TRACON
01:12PM 36.0667 -86.6833 180° South 182 209 3,000 2,820 Climbing Nashville TRACON
01:14PM 35.9458 -86.6161 156° South 242 278 9,200 2,820 Climbing Memphis Center
01:15PM 35.8692 -86.5633 151° Southeast 268 308 11,500 3,000 Climbing Memphis Center
01:16PM 35.7883 -86.5106 152° Southeast 313 360 15,200 2,940 Climbing Memphis Center
01:18PM 35.6489 -86.4436 159° South 339 390 19,600 2,460 Climbing Atlanta Center
01:19PM 35.5408 -86.4200 170° South 355 409 22,000 2,340 Climbing Atlanta Center
01:20PM 35.4369 -86.4017 172° South 372 428 24,300 2,100 Climbing Atlanta Center
01:21PM 35.3353 -86.3631 163° South 377 434 26,300 1,800 Climbing Atlanta Center
01:22PM 35.2300 -86.3069 156° South 394 453 27,900 1,320 Climbing Atlanta Center
01:23PM 35.1247 -86.2481 155° Southeast 410 472 29,000 540 Climbing Atlanta Center
01:24PM 35.0131 -86.1867 156° South 423 487 29,000  Level Atlanta Center
01:25PM 34.8992 -86.1408 162° South 429 494 29,000  Level Atlanta Center
01:26PM 34.8019 -86.0953 159° South 429 494 29,000  Level Atlanta Center
01:27PM 34.6858 -86.0494 162° South 429 494 29,000  Level Atlanta Center
01:28PM 34.5739 -85.9989 160° South 424 488 29,000  Level Atlanta Center
01:29PM 34.4639 -85.9536 161° South 424 488 29,000  Level Atlanta Center
01:30PM 34.3561 -85.9083 161° South 419 482 29,000  Level Atlanta Center
01:31PM 34.2461 -85.8606 160° South 419 482 29,000  Level Atlanta Center
01:32PM 34.1383 -85.8158 161° South 419 482 29,000  Level Atlanta Center
01:33PM 34.0222 -85.7706 162° South 412 474 29,000  Level Atlanta Center
01:34PM 33.9100 -85.7258 162° South 412 474 29,000  Level Atlanta Center
01:35PM 33.7981 -85.6811 162° South 417 480 29,000  Level Atlanta Center
01:36PM 33.6881 -85.6342 160° South 422 486 29,000  Level Atlanta Center
01:37PM 33.5739 -85.5847 160° South 422 486 29,000  Level Atlanta Center
01:38PM 33.4636 -85.5403 161° South 416 479 29,000  Level Atlanta Center
01:39PM 33.3494 -85.4936 161° South 421 484 29,000  Level Atlanta Center
01:40PM 33.2394 -85.4469 160° South 420 483 29,000  Level Atlanta Center
01:41PM 33.1250 -85.4006 161° South 433 498 29,000  Level Atlanta Center
01:42PM 33.0089 -85.3467 159° South 439 505 29,000  Level Atlanta Center
01:44PM 32.7822 -85.2544 161° South 444 511 29,000  Level Atlanta Center
01:45PM 32.6678 -85.2083 161° South 415 478 29,000  Level Atlanta Center
01:46PM 32.5742 -85.1703 161° South 438 504 29,000  Level Atlanta Center
01:47PM 32.4517 -85.1194 161° South 438 504 29,000  Level Atlanta Center
01:48PM 32.3392 -85.0739 161° South 443 510 29,000  Level Atlanta Center
01:49PM 32.2081 -85.0256 163° South 443 510 29,000  Level Atlanta Center
01:50PM 32.0328 -84.9536 161° South 448 516 29,000  Level Jacksonville Center
01:51PM 31.9147 -84.9069 161° South 441 507 29,000  Level Jacksonville Center
01:52PM 31.7881 -84.8600 163° South 441 507 29,000  Level Jacksonville Center
01:53PM 31.6739 -84.8136 161° South 441 507 29,000  Level Jacksonville Center
01:54PM 31.5556 -84.7675 162° South 441 507 29,000  Level Jacksonville Center
01:55PM 31.4372 -84.7211 162° South 441 507 29,000  Level Jacksonville Center
01:56PM 31.3211 -84.6728 160° South 441 507 29,000  Level Jacksonville Center
01:57PM 31.2025 -84.6267 162° South 441 507 29,000  Level Jacksonville Center
01:58PM 31.0842 -84.5808 162° South 441 507 29,000  Level Jacksonville Center
01:59PM 30.9678 -84.5353 161° South 441 507 29,000  Level Jacksonville Center
02:00PM 30.8517 -84.4897 161° South 446 513 29,000  Level Jacksonville Center
02:01PM 30.7353 -84.4442 161° South 446 513 29,000  Level Jacksonville Center
02:02PM 30.6167 -84.3964 161° South 440 506 29,000  Level Jacksonville Center
02:03PM 30.5128 -84.3489 158° South 440 506 29,000  Level Jacksonville Center
02:04PM 30.4031 -84.2750 150° Southeast 451 519 29,000  Level Jacksonville Center
02:05PM 30.2931 -84.2036 151° Southeast 451 519 29,000 -180 Level Jacksonville Center
02:06PM 30.1750 -84.1253 150° Southeast 451 519 28,700 -660 Descending Jacksonville Center
02:07PM 30.0650 -84.0542 151° Southeast 451 519 27,700 -900 Descending Jacksonville Center
02:08PM 29.9611 -83.9883 151° Southeast 446 513 26,900 -360 Descending Jacksonville Center
02:09PM 29.8572 -83.9200 150° Southeast 433 498 27,000  Climbing Jacksonville Center
02:10PM 29.7536 -83.8519 150° Southeast 433 498 27,000  Level Jacksonville Center
02:11PM 29.6475 -83.7864 152° Southeast 433 498 27,000 -420 Level Jacksonville Center
02:12PM 29.5436 -83.7186 150° Southeast 433 498 26,200 -900 Descending Jacksonville Center
02:13PM 29.4417 -83.6533 151° Southeast 433 498 25,200 -1,020 Descending Jacksonville Center
02:14PM 29.3378 -83.5858 150° Southeast 428 493 24,200 -600 Descending Jacksonville Center
02:15PM 29.2378 -83.5233 151° Southeast 422 486 24,000 -120 Descending Jacksonville Center
02:16PM 29.1400 -83.4583 150° Southeast 412 474 24,000  Level Jacksonville Center
02:17PM 29.0422 -83.3983 152° Southeast 412 474 24,000  Level Jacksonville Center
02:18PM 28.9506 -83.3386 150° Southeast 417 480 24,000 -900 Level Jacksonville Center
02:19PM 28.8506 -83.2767 152° Southeast 411 473 22,200 -2,100 Descending Jacksonville Center
02:20PM 28.7547 -83.2147 150° Southeast 405 466 19,900 -2,400 Descending Jacksonville Center
02:22PM 28.6000 -83.1167 151° Southeast 377 434 16,000 -2,400 Descending Tampa TRACON
02:23PM 28.5167 -83.0667 152° Southeast 364 419 14,000 -1,800 Descending Tampa TRACON
02:24PM 28.4333 -83.0167 152° Southeast 352 405 12,600 -1,140 Descending Tampa TRACON
02:25PM 28.3500 -82.9667 152° Southeast 302 348 11,700 -1,200 Descending Tampa TRACON
02:26PM 28.2833 -82.9167 147° Southeast 285 328 10,200 -1,260 Descending Tampa TRACON
02:27PM 28.2667 -82.8167 101° East 292 336 9,200 -1,320 Descending Tampa TRACON
02:28PM 28.2667 -82.7500 90° East 283 326 7,800 -1,440 Descending Tampa TRACON
02:29PM 28.2500 -82.6500 101° East 243 280 6,300 -1,200 Descending Tampa TRACON
02:30PM 28.2000 -82.6167 150° Southeast 209 241 5,300 -1,320 Descending Tampa TRACON
02:31PM 28.1667 -82.5833 139° Southeast 190 219 3,800 -1,320 Descending Tampa TRACON
02:32PM 28.1167 -82.5500 150° Southeast 185 213 2,800 -1,140 Descending Tampa TRACON
02:33PM 28.0833 -82.5333 156° South 161 185 1,700 -900 Descending Tampa TRACON
02:34PM 28.0333 -82.5333 180° South 146 168 1,000 -720 Descending Tampa TRACON
02:35PM 28.0000 -82.5333 180° South 144 166 300 -720 Descending Tampa TRACON
02:37PM 27.9755 -82.5332 161° South  Level Estimated
02:44PM 27.9755 -82.5332 161° South  Level Estimated
02:45PM 27.9755 -82.5332 161° South  Level Estimated